RYR13GP LIBD-LICJ
Flight info
| Callsign | RYR13GP |
|---|---|
| Flight time | 0h 45m |
| Altitude | 33000 |
| Route | TOPNO DCT BUMOK DCT KUTID DCT AMANO M742 ROSAS |
| Aircraft | B738/M-SDE3FGILRWY/SB1 |
Departure
| Time | 2026-04-26 20:29 |
|---|---|
| Airport | Bari Karol Wojtyła International Airport (LIBD) |
Arrival
| Time | 2026-04-26 21:14 |
|---|---|
| Airport | Falcone–Borsellino Airport (LICJ) |
| Time | Latitude | Longitude | Altitude | Speed | Heading |
|---|---|---|---|---|---|
| 2026-04-26 20:00 | 41.13509 | 16.76294 | 135 ft | 0 kts | 159° |
| 2026-04-26 20:22 | 41.13510 | 16.76294 | 135 ft | 2 kts | 159° |
| 2026-04-26 20:22 | 41.13531 | 16.76283 | 135 ft | 3 kts | 156° |
| 2026-04-26 20:22 | 41.13552 | 16.76270 | 135 ft | 3 kts | 147° |
| 2026-04-26 20:23 | 41.13569 | 16.76251 | 135 ft | 3 kts | 114° |
| 2026-04-26 20:23 | 41.13572 | 16.76234 | 135 ft | 0 kts | 69° |
| 2026-04-26 20:25 | 41.13593 | 16.76307 | 135 ft | 13 kts | 69° |
| 2026-04-26 20:25 | 41.13629 | 16.76433 | 135 ft | 15 kts | 69° |
| 2026-04-26 20:26 | 41.13676 | 16.76534 | 135 ft | 13 kts | 28° |
| 2026-04-26 20:26 | 41.13760 | 16.76553 | 135 ft | 13 kts | 341° |
| 2026-04-26 20:26 | 41.13824 | 16.76620 | 133 ft | 15 kts | 70° |
| 2026-04-26 20:26 | 41.13872 | 16.76794 | 120 ft | 24 kts | 69° |
| 2026-04-26 20:27 | 41.13932 | 16.77004 | 122 ft | 23 kts | 69° |
| 2026-04-26 20:27 | 41.13987 | 16.77197 | 119 ft | 17 kts | 69° |
| 2026-04-26 20:27 | 41.14020 | 16.77315 | 119 ft | 13 kts | 69° |
| 2026-04-26 20:27 | 41.14083 | 16.77394 | 119 ft | 14 kts | 17° |
| 2026-04-26 20:28 | 41.14177 | 16.77418 | 114 ft | 14 kts | 347° |
| 2026-04-26 20:28 | 41.14226 | 16.77378 | 114 ft | 5 kts | 265° |
| 2026-04-26 20:28 | 41.14197 | 16.77282 | 114 ft | 31 kts | 249° |
| 2026-04-26 20:28 | 41.14035 | 16.76709 | 123 ft | 100 kts | 249° |
| 2026-04-26 20:29 | 41.13714 | 16.75586 | 157 ft | 154 kts | 247° |
| 2026-04-26 20:29 | 41.13323 | 16.74213 | 733 ft | 157 kts | 249° |
| 2026-04-26 20:29 | 41.12933 | 16.72842 | 1412 ft | 163 kts | 252° |
| 2026-04-26 20:29 | 41.12520 | 16.71364 | 1779 ft | 187 kts | 252° |
| 2026-04-26 20:30 | 41.12031 | 16.69623 | 2094 ft | 209 kts | 251° |
| 2026-04-26 20:30 | 41.11511 | 16.67784 | 2620 ft | 216 kts | 252° |
| 2026-04-26 20:30 | 41.11154 | 16.66531 | 2992 ft | 220 kts | 251° |
| 2026-04-26 20:30 | 41.10424 | 16.63965 | 3720 ft | 236 kts | 251° |
| 2026-04-26 20:31 | 41.09815 | 16.61824 | 3985 ft | 259 kts | 251° |
| 2026-04-26 20:31 | 41.09386 | 16.60318 | 4392 ft | 264 kts | 251° |
| 2026-04-26 20:31 | 41.08729 | 16.58019 | 5136 ft | 268 kts | 251° |
| 2026-04-26 20:31 | 41.08065 | 16.55693 | 5941 ft | 271 kts | 251° |
| 2026-04-26 20:32 | 41.07395 | 16.53349 | 6711 ft | 273 kts | 251° |
| 2026-04-26 20:32 | 41.06718 | 16.50980 | 7462 ft | 276 kts | 251° |
| 2026-04-26 20:32 | 41.06031 | 16.48578 | 8194 ft | 280 kts | 251° |
| 2026-04-26 20:32 | 41.05342 | 16.46167 | 8948 ft | 284 kts | 251° |
| 2026-04-26 20:33 | 41.04635 | 16.43693 | 9727 ft | 288 kts | 250° |
| 2026-04-26 20:33 | 41.03918 | 16.41187 | 10459 ft | 294 kts | 251° |
| 2026-04-26 20:33 | 41.03165 | 16.38553 | 10702 ft | 318 kts | 250° |
| 2026-04-26 20:33 | 41.02352 | 16.35711 | 10926 ft | 339 kts | 250° |
| 2026-04-26 20:34 | 41.01511 | 16.32780 | 11468 ft | 348 kts | 250° |
| 2026-04-26 20:34 | 41.00646 | 16.29771 | 12223 ft | 351 kts | 250° |
| 2026-04-26 20:34 | 40.99773 | 16.26739 | 13019 ft | 353 kts | 250° |
| 2026-04-26 20:34 | 40.98889 | 16.23673 | 13823 ft | 357 kts | 250° |
| 2026-04-26 20:35 | 40.98001 | 16.20591 | 14575 ft | 360 kts | 250° |
| 2026-04-26 20:35 | 40.97106 | 16.17488 | 15407 ft | 360 kts | 250° |
| 2026-04-26 20:35 | 40.96212 | 16.14393 | 16258 ft | 360 kts | 250° |
| 2026-04-26 20:35 | 40.95305 | 16.11294 | 17075 ft | 362 kts | 248° |
| 2026-04-26 20:36 | 40.94064 | 16.08381 | 17850 ft | 366 kts | 237° |
| 2026-04-26 20:36 | 40.92573 | 16.05640 | 18620 ft | 368 kts | 235° |
| 2026-04-26 20:36 | 40.91037 | 16.02898 | 19203 ft | 373 kts | 235° |
| 2026-04-26 20:36 | 40.89482 | 16.00115 | 19753 ft | 379 kts | 235° |
| 2026-04-26 20:37 | 40.87915 | 15.97284 | 20296 ft | 384 kts | 236° |
| 2026-04-26 20:37 | 40.86357 | 15.94442 | 20849 ft | 388 kts | 236° |
| 2026-04-26 20:37 | 40.84775 | 15.91539 | 21454 ft | 391 kts | 236° |
| 2026-04-26 20:37 | 40.83172 | 15.88588 | 22017 ft | 396 kts | 236° |
| 2026-04-26 20:38 | 40.81558 | 15.85611 | 22547 ft | 401 kts | 236° |
| 2026-04-26 20:38 | 40.79922 | 15.82597 | 23080 ft | 405 kts | 236° |
| 2026-04-26 20:38 | 40.78289 | 15.79591 | 23615 ft | 409 kts | 236° |
| 2026-04-26 20:38 | 40.76622 | 15.76525 | 24081 ft | 413 kts | 236° |
| 2026-04-26 20:39 | 40.74939 | 15.73433 | 24546 ft | 416 kts | 236° |
| 2026-04-26 20:39 | 40.73245 | 15.70324 | 25024 ft | 419 kts | 236° |
| 2026-04-26 20:39 | 40.71533 | 15.67194 | 25472 ft | 422 kts | 235° |
| 2026-04-26 20:39 | 40.69719 | 15.64133 | 25896 ft | 425 kts | 232° |
| 2026-04-26 20:40 | 40.67809 | 15.61125 | 26295 ft | 430 kts | 231° |
| 2026-04-26 20:40 | 40.65854 | 15.58118 | 26701 ft | 433 kts | 231° |
| 2026-04-26 20:40 | 40.63885 | 15.55100 | 27149 ft | 436 kts | 231° |
| 2026-04-26 20:40 | 40.61905 | 15.52051 | 27572 ft | 438 kts | 231° |
| 2026-04-26 20:41 | 40.59948 | 15.49018 | 27958 ft | 441 kts | 231° |
| 2026-04-26 20:41 | 40.57960 | 15.45927 | 28349 ft | 444 kts | 231° |
| 2026-04-26 20:41 | 40.55962 | 15.42813 | 28729 ft | 447 kts | 231° |
| 2026-04-26 20:41 | 40.53947 | 15.39673 | 29125 ft | 449 kts | 231° |
| 2026-04-26 20:42 | 40.51927 | 15.36529 | 29650 ft | 448 kts | 231° |
| 2026-04-26 20:42 | 40.49919 | 15.33408 | 30237 ft | 446 kts | 231° |
| 2026-04-26 20:42 | 40.47918 | 15.30299 | 30692 ft | 444 kts | 231° |
| 2026-04-26 20:42 | 40.45950 | 15.27246 | 31145 ft | 443 kts | 231° |
| 2026-04-26 20:43 | 40.43957 | 15.24156 | 31633 ft | 441 kts | 231° |
| 2026-04-26 20:43 | 40.41979 | 15.21095 | 32102 ft | 439 kts | 231° |
| 2026-04-26 20:43 | 40.39976 | 15.18080 | 32541 ft | 438 kts | 229° |
| 2026-04-26 20:43 | 40.37938 | 15.15121 | 32960 ft | 437 kts | 229° |
| 2026-04-26 20:44 | 40.35878 | 15.12173 | 33179 ft | 440 kts | 229° |
| 2026-04-26 20:44 | 40.31722 | 15.06236 | 33163 ft | 441 kts | 229° |
| 2026-04-26 20:45 | 40.27641 | 15.00383 | 33170 ft | 435 kts | 229° |
| 2026-04-26 20:45 | 40.23553 | 14.94504 | 33174 ft | 437 kts | 229° |
| 2026-04-26 20:46 | 40.19454 | 14.88615 | 33175 ft | 437 kts | 229° |
| 2026-04-26 20:46 | 40.15368 | 14.82757 | 33169 ft | 438 kts | 229° |
| 2026-04-26 20:47 | 40.11256 | 14.76873 | 33181 ft | 438 kts | 229° |
| 2026-04-26 20:47 | 40.07133 | 14.70985 | 33175 ft | 439 kts | 229° |
| 2026-04-26 20:48 | 40.03013 | 14.65113 | 33173 ft | 438 kts | 229° |
| 2026-04-26 20:48 | 39.98911 | 14.59277 | 33176 ft | 438 kts | 229° |
| 2026-04-26 20:49 | 39.94786 | 14.53420 | 33174 ft | 438 kts | 229° |
| 2026-04-26 20:49 | 39.90663 | 14.47577 | 33103 ft | 438 kts | 229° |
| 2026-04-26 20:49 | 39.88599 | 14.44657 | 32736 ft | 435 kts | 228° |
| 2026-04-26 20:50 | 39.86566 | 14.41783 | 32300 ft | 430 kts | 228° |
| 2026-04-26 20:50 | 39.84547 | 14.38933 | 31906 ft | 425 kts | 228° |
| 2026-04-26 20:50 | 39.82574 | 14.36148 | 31480 ft | 422 kts | 228° |
| 2026-04-26 20:50 | 39.80587 | 14.33347 | 31061 ft | 419 kts | 228° |
| 2026-04-26 20:51 | 39.78614 | 14.30568 | 30646 ft | 416 kts | 228° |
| 2026-04-26 20:51 | 39.76655 | 14.27810 | 30224 ft | 413 kts | 228° |
| 2026-04-26 20:51 | 39.74703 | 14.25065 | 29734 ft | 411 kts | 228° |
| 2026-04-26 20:51 | 39.72769 | 14.22349 | 29294 ft | 407 kts | 228° |
| 2026-04-26 20:52 | 39.70880 | 14.19697 | 28851 ft | 403 kts | 228° |
| 2026-04-26 20:52 | 39.68981 | 14.17035 | 28443 ft | 399 kts | 228° |
| 2026-04-26 20:52 | 39.67098 | 14.14397 | 28004 ft | 396 kts | 228° |
| 2026-04-26 20:52 | 39.65224 | 14.11772 | 27581 ft | 393 kts | 228° |
| 2026-04-26 20:53 | 39.63371 | 14.09180 | 27165 ft | 390 kts | 228° |
| 2026-04-26 20:53 | 39.61532 | 14.06611 | 26761 ft | 387 kts | 228° |
| 2026-04-26 20:53 | 39.59727 | 14.04089 | 26351 ft | 385 kts | 228° |
| 2026-04-26 20:53 | 39.57907 | 14.01550 | 25938 ft | 383 kts | 228° |
| 2026-04-26 20:54 | 39.56096 | 13.99025 | 25531 ft | 380 kts | 228° |
| 2026-04-26 20:54 | 39.54299 | 13.96520 | 25147 ft | 378 kts | 228° |
| 2026-04-26 20:54 | 39.52505 | 13.94023 | 24740 ft | 377 kts | 228° |
| 2026-04-26 20:54 | 39.50722 | 13.91543 | 24341 ft | 375 kts | 228° |
| 2026-04-26 20:55 | 39.48960 | 13.89092 | 23932 ft | 374 kts | 228° |
| 2026-04-26 20:55 | 39.47184 | 13.86625 | 23480 ft | 373 kts | 228° |
| 2026-04-26 20:55 | 39.45414 | 13.84170 | 23035 ft | 371 kts | 228° |
| 2026-04-26 20:55 | 39.43639 | 13.81764 | 22616 ft | 369 kts | 223° |
| 2026-04-26 20:56 | 39.41601 | 13.79759 | 22225 ft | 367 kts | 212° |
| 2026-04-26 20:56 | 39.39356 | 13.78297 | 21833 ft | 364 kts | 201° |
| 2026-04-26 20:56 | 39.36976 | 13.77190 | 21451 ft | 362 kts | 199° |
| 2026-04-26 20:56 | 39.34605 | 13.76142 | 21045 ft | 360 kts | 199° |
| 2026-04-26 20:57 | 39.32236 | 13.75103 | 20672 ft | 358 kts | 199° |
| 2026-04-26 20:57 | 39.29882 | 13.74065 | 20295 ft | 355 kts | 199° |
| 2026-04-26 20:57 | 39.27550 | 13.73027 | 19913 ft | 354 kts | 199° |
| 2026-04-26 20:57 | 39.25225 | 13.71987 | 19538 ft | 352 kts | 199° |
| 2026-04-26 20:58 | 39.22920 | 13.70951 | 19163 ft | 350 kts | 200° |
| 2026-04-26 20:58 | 39.20656 | 13.69932 | 18797 ft | 349 kts | 200° |
| 2026-04-26 20:58 | 39.18365 | 13.68899 | 18416 ft | 347 kts | 200° |
| 2026-04-26 20:58 | 39.16090 | 13.67873 | 17991 ft | 346 kts | 199° |
| 2026-04-26 20:59 | 39.13821 | 13.66851 | 17592 ft | 343 kts | 199° |
| 2026-04-26 20:59 | 39.11565 | 13.65835 | 17206 ft | 341 kts | 199° |
| 2026-04-26 20:59 | 39.09332 | 13.64830 | 16834 ft | 339 kts | 199° |
| 2026-04-26 20:59 | 39.07141 | 13.63845 | 16470 ft | 336 kts | 199° |
| 2026-04-26 21:00 | 39.04936 | 13.62853 | 16099 ft | 334 kts | 199° |
| 2026-04-26 21:00 | 39.02748 | 13.61871 | 15743 ft | 332 kts | 199° |
| 2026-04-26 21:00 | 39.00566 | 13.60891 | 15385 ft | 330 kts | 199° |
| 2026-04-26 21:00 | 38.98405 | 13.59921 | 15031 ft | 328 kts | 199° |
| 2026-04-26 21:01 | 38.96257 | 13.58958 | 14678 ft | 326 kts | 199° |
| 2026-04-26 21:01 | 38.94119 | 13.58000 | 14322 ft | 324 kts | 199° |
| 2026-04-26 21:01 | 38.92014 | 13.57057 | 13971 ft | 323 kts | 199° |
| 2026-04-26 21:01 | 38.89887 | 13.56105 | 13569 ft | 322 kts | 199° |
| 2026-04-26 21:02 | 38.87774 | 13.55160 | 13189 ft | 320 kts | 199° |
| 2026-04-26 21:02 | 38.85678 | 13.54225 | 12826 ft | 318 kts | 199° |
| 2026-04-26 21:02 | 38.83555 | 13.53483 | 12501 ft | 314 kts | 191° |
| 2026-04-26 21:02 | 38.81404 | 13.53008 | 12156 ft | 312 kts | 189° |
| 2026-04-26 21:03 | 38.79264 | 13.52599 | 11811 ft | 310 kts | 188° |
| 2026-04-26 21:03 | 38.77156 | 13.52199 | 11462 ft | 308 kts | 188° |
| 2026-04-26 21:03 | 38.75034 | 13.51785 | 11118 ft | 307 kts | 189° |
| 2026-04-26 21:03 | 38.72934 | 13.51363 | 10776 ft | 305 kts | 189° |
| 2026-04-26 21:04 | 38.70846 | 13.50935 | 10546 ft | 300 kts | 189° |
| 2026-04-26 21:04 | 38.68793 | 13.50509 | 10298 ft | 296 kts | 189° |
| 2026-04-26 21:04 | 38.66789 | 13.50091 | 10155 ft | 288 kts | 189° |
| 2026-04-26 21:04 | 38.64858 | 13.49686 | 9992 ft | 281 kts | 189° |
| 2026-04-26 21:05 | 38.62922 | 13.49280 | 9676 ft | 280 kts | 189° |
| 2026-04-26 21:05 | 38.61001 | 13.48877 | 9391 ft | 278 kts | 189° |
| 2026-04-26 21:05 | 38.59093 | 13.48476 | 9106 ft | 276 kts | 189° |
| 2026-04-26 21:05 | 38.57202 | 13.48079 | 8821 ft | 275 kts | 189° |
| 2026-04-26 21:06 | 38.55343 | 13.47689 | 8535 ft | 273 kts | 189° |
| 2026-04-26 21:06 | 38.53468 | 13.47296 | 8261 ft | 272 kts | 189° |
| 2026-04-26 21:06 | 38.51609 | 13.46894 | 7979 ft | 270 kts | 192° |
| 2026-04-26 21:06 | 38.49807 | 13.46209 | 7690 ft | 270 kts | 199° |
| 2026-04-26 21:07 | 38.48053 | 13.45376 | 7401 ft | 269 kts | 200° |
| 2026-04-26 21:07 | 38.46302 | 13.44524 | 7112 ft | 269 kts | 200° |
| 2026-04-26 21:07 | 38.44549 | 13.43681 | 6827 ft | 268 kts | 200° |
| 2026-04-26 21:07 | 38.42796 | 13.42849 | 6534 ft | 268 kts | 199° |
| 2026-04-26 21:08 | 38.41046 | 13.42028 | 6227 ft | 268 kts | 199° |
| 2026-04-26 21:08 | 38.39294 | 13.41213 | 5928 ft | 267 kts | 199° |
| 2026-04-26 21:08 | 38.37544 | 13.40403 | 5632 ft | 267 kts | 199° |
| 2026-04-26 21:08 | 38.35823 | 13.39609 | 5346 ft | 266 kts | 199° |
| 2026-04-26 21:09 | 38.34078 | 13.38806 | 5060 ft | 265 kts | 200° |
| 2026-04-26 21:09 | 38.32353 | 13.38013 | 4804 ft | 259 kts | 199° |
| 2026-04-26 21:09 | 38.30677 | 13.37243 | 4492 ft | 252 kts | 199° |
| 2026-04-26 21:09 | 38.29045 | 13.36494 | 4202 ft | 246 kts | 199° |
| 2026-04-26 21:10 | 38.27454 | 13.35763 | 3933 ft | 239 kts | 200° |
| 2026-04-26 21:10 | 38.26119 | 13.34617 | 3759 ft | 230 kts | 234° |
| 2026-04-26 21:10 | 38.25492 | 13.32794 | 3528 ft | 223 kts | 252° |
| 2026-04-26 21:10 | 38.24933 | 13.30992 | 3230 ft | 220 kts | 246° |
| 2026-04-26 21:11 | 38.24320 | 13.29217 | 2947 ft | 218 kts | 246° |
| 2026-04-26 21:11 | 38.23725 | 13.27460 | 2664 ft | 214 kts | 246° |
| 2026-04-26 21:11 | 38.23147 | 13.25737 | 2383 ft | 209 kts | 246° |
| 2026-04-26 21:11 | 38.22587 | 13.24064 | 2093 ft | 203 kts | 246° |
| 2026-04-26 21:12 | 38.22042 | 13.22436 | 1818 ft | 197 kts | 246° |
| 2026-04-26 21:12 | 38.21513 | 13.20856 | 1542 ft | 192 kts | 245° |
| 2026-04-26 21:12 | 38.21006 | 13.19339 | 1302 ft | 180 kts | 245° |
| 2026-04-26 21:12 | 38.20530 | 13.17917 | 1091 ft | 166 kts | 246° |
| 2026-04-26 21:13 | 38.20099 | 13.16627 | 846 ft | 151 kts | 246° |
| 2026-04-26 21:13 | 38.19681 | 13.15403 | 637 ft | 151 kts | 247° |
| 2026-04-26 21:13 | 38.19279 | 13.14191 | 434 ft | 150 kts | 247° |
| 2026-04-26 21:13 | 38.18880 | 13.12967 | 252 ft | 151 kts | 247° |
| 2026-04-26 21:14 | 38.18472 | 13.11753 | 66 ft | 147 kts | 247° |
| 2026-04-26 21:14 | 38.18139 | 13.10754 | 51 ft | 81 kts | 247° |
| 2026-04-26 21:14 | 38.18009 | 13.10363 | 51 ft | 20 kts | 256° |
| 2026-04-26 21:14 | 38.18018 | 13.10191 | 49 ft | 19 kts | 277° |
| 2026-04-26 21:15 | 38.18034 | 13.10026 | 50 ft | 15 kts | 277° |
| 2026-04-26 21:15 | 38.18068 | 13.09961 | 52 ft | 9 kts | 25° |
| 2026-04-26 21:15 | 38.18106 | 13.10045 | 52 ft | 14 kts | 66° |
| 2026-04-26 21:15 | 38.18153 | 13.10184 | 51 ft | 18 kts | 67° |
| 2026-04-26 21:16 | 38.18202 | 13.10328 | 52 ft | 13 kts | 66° |
| 2026-04-26 21:16 | 38.18272 | 13.10351 | 52 ft | 13 kts | 330° |
| 2026-04-26 21:16 | 38.18324 | 13.10320 | 50 ft | 12 kts | 337° |
| 2026-04-26 21:16 | 38.18420 | 13.10273 | 51 ft | 10 kts | 357° |
| 2026-04-26 21:17 | 38.18462 | 13.10333 | 52 ft | 10 kts | 66° |
| 2026-04-26 21:17 | 38.18473 | 13.10364 | 51 ft | 3 kts | 66° |
| 2026-04-26 21:17 | 38.18476 | 13.10373 | 52 ft | 0 kts | 66° |